Time;durP1;ratioP1;P1;durP2;ratioP2;P2;SDS_P1;SDS_P2;PMS_P1;PMS_P2;Temp;Humidity;BMP_temperature;BMP_pressure;BME280_temperature;BME280_humidity;BME280_pressure;Samples;Min_cycle;Max_cycle;Signal;HPM_P1;HPM_P2
2022/02/19 00:01:42;;;;;;;17.27;2.33;;;6.30;82.30;;;;;;5090190;28;20028;-60
2022/02/19 00:04:08;;;;;;;11.63;1.77;;;6.30;82.30;;;;;;5074455;28;20025;-59
2022/02/19 00:06:34;;;;;;;13.02;1.92;;;6.30;82.30;;;;;;5074580;28;20498;-59
2022/02/19 00:09:00;;;;;;;12.63;1.60;;;6.30;82.70;;;;;;5088452;28;20027;-60
2022/02/19 00:11:27;;;;;;;10.45;1.67;;;6.30;82.80;;;;;;5073631;28;20025;-60
2022/02/19 00:13:54;;;;;;;8.07;1.52;;;6.30;82.90;;;;;;5073548;28;20381;-59
2022/02/19 00:16:19;;;;;;;13.32;1.70;;;6.30;82.70;;;;;;5074129;28;20052;-60
2022/02/19 00:18:45;;;;;;;14.50;1.58;;;6.20;82.80;;;;;;5074284;28;20063;-60
2022/02/19 00:21:11;;;;;;;13.93;1.67;;;6.20;83.10;;;;;;5089280;28;20400;-60
2022/02/19 00:23:36;;;;;;;10.48;1.42;;;6.20;83.00;;;;;;5073888;28;20036;-60
2022/02/19 00:26:02;;;;;;;11.10;1.65;;;6.20;83.00;;;;;;5074043;28;20021;-59
2022/02/19 00:28:28;;;;;;;12.07;1.40;;;6.20;82.80;;;;;;5073913;28;20520;-60
2022/02/19 00:30:54;;;;;;;15.77;1.88;;;6.20;82.80;;;;;;5073912;28;20094;-60
2022/02/19 00:33:21;;;;;;;9.40;1.67;;;6.20;83.40;;;;;;5073888;28;20062;-60
2022/02/19 00:35:47;;;;;;;14.38;2.50;;;6.20;83.80;;;;;;5073952;28;20020;-60
2022/02/19 00:38:17;;;;;;;9.77;2.30;;;6.20;84.20;;;;;;5073669;28;20031;-59
2022/02/19 00:40:46;;;;;;;18.98;2.92;;;6.20;84.00;;;;;;5072523;28;20387;-60
2022/02/19 00:43:12;;;;;;;13.98;3.17;;;6.20;84.10;;;;;;5073629;28;20082;-60
2022/02/19 00:45:38;;;;;;;10.60;1.70;;;6.20;84.30;;;;;;5073646;28;20446;-60
2022/02/19 00:48:03;;;;;;;13.40;1.73;;;6.10;84.30;;;;;;5073719;28;20021;-60
2022/02/19 00:50:29;;;;;;;12.85;1.80;;;6.10;84.60;;;;;;5073550;28;20033;-60
2022/02/19 00:52:55;;;;;;;10.00;1.83;;;6.10;84.50;;;;;;5073302;28;20028;-59
2022/02/19 00:55:21;;;;;;;14.93;2.75;;;6.10;84.60;;;;;;5073090;28;20029;-59
2022/02/19 00:57:47;;;;;;;12.68;2.15;;;6.10;85.00;;;;;;5073395;28;20473;-59
2022/02/19 01:00:13;;;;;;;13.52;2.55;;;6.10;85.00;;;;;;5073407;28;20032;-59
2022/02/19 01:02:38;;;;;;;11.73;2.47;;;6.10;85.40;;;;;;5073269;28;20431;-60
2022/02/19 01:05:04;;;;;;;10.82;2.30;;;6.10;85.80;;;;;;5073279;28;20028;-59
2022/02/19 01:07:30;;;;;;;8.45;1.63;;;6.10;85.90;;;;;;5073277;28;20024;-59
2022/02/19 01:09:55;;;;;;;11.68;1.73;;;6.10;85.60;;;;;;5071745;28;20024;-59
2022/02/19 01:12:21;;;;;;;14.15;1.95;;;6.10;85.60;;;;;;5073311;28;20020;-59
2022/02/19 01:14:47;;;;;;;9.43;1.80;;;6.10;85.60;;;;;;5073352;28;20024;-59
2022/02/19 01:17:12;;;;;;;12.80;1.80;;;6.10;85.60;;;;;;5072989;28;20021;-59
2022/02/19 01:19:38;;;;;;;11.18;2.05;;;6.10;85.50;;;;;;5088899;28;20024;-59
2022/02/19 01:22:06;;;;;;;10.20;2.08;;;6.10;85.60;;;;;;5058499;28;20049;-60
2022/02/19 01:24:32;;;;;;;13.63;2.13;;;6.10;85.80;;;;;;5052382;28;20388;-59
2022/02/19 01:26:58;;;;;;;15.25;1.60;;;6.10;85.90;;;;;;5052572;28;20064;-59
2022/02/19 01:29:23;;;;;;;10.50;1.30;;;6.10;85.80;;;;;;5052572;28;20477;-59
2022/02/19 01:31:50;;;;;;;14.50;2.00;;;6.10;85.80;;;;;;5052687;28;20456;-59
2022/02/19 01:34:15;;;;;;;12.93;2.10;;;6.10;85.80;;;;;;5052727;28;20107;-59
2022/02/19 01:36:41;;;;;;;9.02;1.50;;;6.10;85.40;;;;;;5052900;28;20096;-59
2022/02/19 01:39:07;;;;;;;9.13;1.58;;;6.10;85.40;;;;;;5051555;28;20400;-59
2022/02/19 01:41:32;;;;;;;10.82;1.60;;;6.10;85.30;;;;;;5053239;28;20036;-59
2022/02/19 01:44:06;;;;;;;14.52;1.30;;;6.10;85.20;;;;;;5051505;28;20033;-59
2022/02/19 01:46:32;;;;;;;10.88;1.65;;;6.10;84.70;;;;;;5052590;28;20060;-59
2022/02/19 01:48:58;;;;;;;13.60;1.42;;;6.10;84.70;;;;;;5052774;28;20017;-59
2022/02/19 01:51:23;;;;;;;8.65;1.42;;;6.10;84.60;;;;;;5051457;28;20032;-59
2022/02/19 01:53:49;;;;;;;10.45;1.42;;;6.10;84.70;;;;;;5052763;28;20029;-59
2022/02/19 01:56:14;;;;;;;6.45;1.20;;;6.10;84.50;;;;;;5052466;28;20017;-59
2022/02/19 01:58:41;;;;;;;11.00;1.40;;;6.10;84.30;;;;;;5052658;28;20107;-59
2022/02/19 02:01:06;;;;;;;13.93;1.63;;;6.10;84.40;;;;;;5052613;28;20029;-59
2022/02/19 02:03:32;;;;;;;6.63;1.52;;;6.10;84.10;;;;;;5052504;28;20035;-59
2022/02/19 02:05:57;;;;;;;10.30;1.23;;;6.10;84.20;;;;;;5052551;28;20029;-59
2022/02/19 02:08:23;;;;;;;10.25;1.55;;;6.10;84.10;;;;;;5056616;28;20033;-60
2022/02/19 02:10:49;;;;;;;10.60;2.08;;;6.10;84.00;;;;;;5069932;28;20101;-59
2022/02/19 02:13:15;;;;;;;10.95;1.38;;;6.10;84.00;;;;;;5076498;28;20483;-60
2022/02/19 02:15:40;;;;;;;9.10;1.17;;;6.10;83.60;;;;;;5076502;28;20028;-60
2022/02/19 02:18:06;;;;;;;13.30;1.30;;;6.10;84.00;;;;;;5076584;28;20488;-60
2022/02/19 02:20:32;;;;;;;15.40;2.15;;;6.10;84.10;;;;;;5076161;28;20119;-60
2022/02/19 02:22:58;;;;;;;5.85;1.23;;;6.10;84.20;;;;;;5076861;28;20030;-59
2022/02/19 02:25:31;;;;;;;11.40;1.38;;;6.10;83.90;;;;;;5076026;28;20117;-60
2022/02/19 02:27:57;;;;;;;10.60;1.42;;;6.10;83.90;;;;;;5076020;28;20035;-60
2022/02/19 02:30:23;;;;;;;8.48;1.40;;;6.10;84.10;;;;;;5076252;28;20024;-60
2022/02/19 02:32:49;;;;;;;9.50;1.40;;;6.10;84.30;;;;;;5076181;28;20459;-60
2022/02/19 02:35:15;;;;;;;10.18;1.30;;;6.10;84.50;;;;;;5075831;28;20388;-60
2022/02/19 02:37:42;;;;;;;13.02;1.63;;;6.10;84.10;;;;;;5074883;28;20040;-59
2022/02/19 02:40:09;;;;;;;6.43;1.10;;;6.10;84.00;;;;;;5056271;28;20021;-60
2022/02/19 02:42:34;;;;;;;9.60;1.20;;;6.10;84.20;;;;;;5056176;28;20048;-60
2022/02/19 02:45:00;;;;;;;8.40;1.30;;;6.10;84.10;;;;;;5075697;28;20468;-59
2022/02/19 02:47:25;;;;;;;9.50;1.40;;;6.00;83.90;;;;;;5075989;28;20078;-60
2022/02/19 02:49:51;;;;;;;8.38;1.13;;;6.10;84.10;;;;;;5074703;28;20560;-59
2022/02/19 02:52:16;;;;;;;11.85;2.17;;;6.10;84.10;;;;;;5075727;28;20033;-60
2022/02/19 02:54:42;;;;;;;13.60;2.38;;;6.10;84.40;;;;;;5075796;28;20056;-59
2022/02/19 02:57:08;;;;;;;12.93;1.40;;;6.10;84.60;;;;;;5075511;28;20023;-60
2022/02/19 02:59:34;;;;;;;8.93;1.58;;;6.00;84.40;;;;;;5075841;28;20525;-59
2022/02/19 03:01:59;;;;;;;10.45;1.08;;;6.10;84.60;;;;;;5074436;28;20021;-60
2022/02/19 03:04:25;;;;;;;8.82;1.15;;;6.10;84.30;;;;;;5075810;28;20028;-60
2022/02/19 03:06:50;;;;;;;7.75;1.13;;;6.10;84.00;;;;;;5091012;28;20037;-60
2022/02/19 03:09:16;;;;;;;8.77;1.08;;;6.10;83.50;;;;;;5075628;28;20028;-60
2022/02/19 03:11:42;;;;;;;4.88;0.95;;;6.10;83.10;;;;;;5075240;28;20021;-60
2022/02/19 03:14:10;;;;;;;12.48;1.80;;;6.10;82.90;;;;;;5075446;28;20036;-60
2022/02/19 03:16:36;;;;;;;7.95;1.10;;;6.10;83.10;;;;;;5075049;28;20060;-60
2022/02/19 03:19:01;;;;;;;6.43;1.02;;;6.10;83.30;;;;;;5075451;28;20096;-60
2022/02/19 03:21:27;;;;;;;7.28;0.82;;;6.10;83.20;;;;;;5075037;28;20131;-59
2022/02/19 03:23:53;;;;;;;11.80;1.30;;;6.10;83.50;;;;;;5075234;28;20181;-60
2022/02/19 03:26:19;;;;;;;8.35;1.63;;;6.10;83.50;;;;;;5075316;28;20020;-60
2022/02/19 03:28:45;;;;;;;8.90;1.02;;;6.10;83.00;;;;;;5075095;28;20032;-60
2022/02/19 03:31:10;;;;;;;10.52;1.67;;;6.10;83.00;;;;;;5075181;28;20035;-60
2022/02/19 03:33:36;;;;;;;9.35;1.30;;;6.10;83.00;;;;;;5075003;28;20032;-59
2022/02/19 03:36:02;;;;;;;7.05;1.30;;;6.10;82.70;;;;;;5074986;28;20502;-59
2022/02/19 03:38:27;;;;;;;6.10;1.00;;;6.10;82.10;;;;;;5075142;28;20456;-59
2022/02/19 03:40:53;;;;;;;9.23;1.33;;;6.10;81.60;;;;;;5074999;28;20361;-59
2022/02/19 03:43:18;;;;;;;12.70;2.30;;;6.10;82.10;;;;;;5090134;28;20483;-59
2022/02/19 03:45:45;;;;;;;6.32;1.17;;;6.10;82.40;;;;;;5074412;28;20068;-59
2022/02/19 03:48:11;;;;;;;10.98;1.75;;;6.10;83.00;;;;;;5074500;28;20056;-59
2022/02/19 03:50:37;;;;;;;7.72;1.70;;;6.10;82.70;;;;;;5074710;28;20075;-60
2022/02/19 03:53:03;;;;;;;12.13;1.85;;;6.20;82.40;;;;;;5074596;28;20481;-59
2022/02/19 03:55:29;;;;;;;10.73;1.48;;;6.10;82.10;;;;;;5074833;28;20025;-59
2022/02/19 03:57:55;;;;;;;11.18;1.13;;;6.10;82.30;;;;;;5074256;28;20526;-59
2022/02/19 04:00:21;;;;;;;9.73;1.30;;;6.20;82.80;;;;;;5074673;28;20025;-59
2022/02/19 04:02:47;;;;;;;12.32;1.35;;;6.10;83.30;;;;;;5074515;28;20028;-59
2022/02/19 04:05:14;;;;;;;7.38;1.42;;;6.10;83.50;;;;;;5073180;28;20104;-59
2022/02/19 04:07:40;;;;;;;13.52;1.70;;;6.10;83.60;;;;;;5074455;28;20020;-60
2022/02/19 04:10:07;;;;;;;10.75;1.63;;;6.10;83.50;;;;;;5074413;28;20495;-59
2022/02/19 04:12:33;;;;;;;11.80;1.40;;;6.10;83.20;;;;;;5074387;28;20024;-59
2022/02/19 04:14:58;;;;;;;12.80;1.77;;;6.10;83.20;;;;;;5074316;28;20028;-60
2022/02/19 04:17:24;;;;;;;9.88;1.55;;;6.10;83.60;;;;;;5074296;28;20029;-59
2022/02/19 04:19:53;;;;;;;9.32;2.00;;;6.10;84.00;;;;;;5074168;28;20099;-59
2022/02/19 04:22:22;;;;;;;12.18;1.85;;;6.10;84.30;;;;;;5074111;28;20086;-59
2022/02/19 04:24:49;;;;;;;9.15;1.60;;;6.00;83.90;;;;;;5074111;28;20559;-60
2022/02/19 04:27:19;;;;;;;14.05;1.77;;;6.00;84.10;;;;;;5074106;28;20086;-59
2022/02/19 04:29:45;;;;;;;13.30;1.42;;;6.00;84.00;;;;;;5073171;28;20050;-59
2022/02/19 04:32:11;;;;;;;11.65;1.35;;;6.00;83.90;;;;;;5073792;28;20479;-60
2022/02/19 04:34:37;;;;;;;11.95;2.97;;;6.00;84.00;;;;;;5073992;28;20495;-59
2022/02/19 04:37:03;;;;;;;10.65;1.25;;;6.00;83.80;;;;;;5074150;28;20035;-59
2022/02/19 04:39:29;;;;;;;11.02;1.48;;;6.00;83.90;;;;;;5073962;28;20024;-59
2022/02/19 04:41:54;;;;;;;18.48;2.63;;;6.00;84.70;;;;;;5073717;28;20036;-59
2022/02/19 04:44:20;;;;;;;14.65;1.83;;;6.00;85.30;;;;;;5073653;28;20380;-59
2022/02/19 04:46:45;;;;;;;10.00;1.65;;;5.90;85.70;;;;;;5073460;28;20114;-59
2022/02/19 04:49:11;;;;;;;10.77;1.92;;;5.90;85.80;;;;;;5073683;28;20064;-59
2022/02/19 04:51:37;;;;;;;8.38;1.30;;;5.90;85.60;;;;;;5073568;28;20048;-59
2022/02/19 04:54:03;;;;;;;6.35;1.50;;;5.90;85.70;;;;;;5073430;28;20498;-59
2022/02/19 04:56:28;;;;;;;12.25;1.42;;;5.80;86.10;;;;;;5073547;28;20029;-59
2022/02/19 04:58:54;;;;;;;8.35;1.35;;;5.80;86.20;;;;;;5089061;28;20044;-59
2022/02/19 05:01:20;;;;;;;12.52;1.63;;;5.80;86.40;;;;;;5073429;28;20078;-59
2022/02/19 05:03:45;;;;;;;9.10;1.50;;;5.80;86.90;;;;;;5072943;28;20536;-59
2022/02/19 05:06:13;;;;;;;9.13;1.60;;;5.80;87.10;;;;;;5073329;28;20115;-59
2022/02/19 05:08:39;;;;;;;10.70;1.45;;;5.80;87.10;;;;;;5073193;28;20032;-59
2022/02/19 05:11:05;;;;;;;14.13;1.77;;;5.80;87.40;;;;;;5073270;28;20033;-59
2022/02/19 05:13:31;;;;;;;8.02;1.27;;;5.70;87.20;;;;;;5073046;28;20036;-59
2022/02/19 05:15:56;;;;;;;10.32;1.90;;;5.70;88.20;;;;;;5088626;28;20021;-60
2022/02/19 05:18:22;;;;;;;9.20;1.80;;;5.60;88.90;;;;;;5071946;28;20107;-59
2022/02/19 05:20:47;;;;;;;10.40;1.23;;;5.60;89.60;;;;;;5072868;28;20036;-60
2022/02/19 05:23:13;;;;;;;9.15;1.58;;;5.50;89.70;;;;;;5073085;28;20374;-60
2022/02/19 05:25:40;;;;;;;10.73;1.90;;;5.50;90.00;;;;;;5072963;28;20384;-60
2022/02/19 05:28:07;;;;;;;11.30;1.98;;;5.50;90.00;;;;;;5073479;28;20025;-60
2022/02/19 05:30:32;;;;;;;11.40;1.65;;;5.50;89.50;;;;;;5072704;28;20495;-59
2022/02/19 05:32:58;;;;;;;10.80;1.52;;;5.50;89.30;;;;;;5073092;28;20040;-59
2022/02/19 05:35:23;;;;;;;8.13;1.58;;;5.50;89.30;;;;;;5073015;28;20048;-59
2022/02/19 05:37:49;;;;;;;11.75;1.55;;;5.50;89.40;;;;;;5088663;28;20484;-59
2022/02/19 05:40:15;;;;;;;8.95;1.58;;;5.50;89.20;;;;;;5071656;28;20522;-59
2022/02/19 05:42:40;;;;;;;12.60;2.60;;;5.50;89.00;;;;;;5072716;28;20024;-59
2022/02/19 05:45:06;;;;;;;10.50;1.23;;;5.50;88.70;;;;;;5072549;28;20035;-59
2022/02/19 05:47:31;;;;;;;11.57;1.50;;;5.60;88.70;;;;;;5071530;28;20024;-59
2022/02/19 05:49:58;;;;;;;12.52;2.08;;;5.50;88.30;;;;;;5072815;28;20113;-60
2022/02/19 05:52:24;;;;;;;12.73;1.40;;;5.60;88.20;;;;;;5072671;28;20048;-59
2022/02/19 05:54:53;;;;;;;12.60;1.40;;;5.60;88.10;;;;;;5072757;28;20032;-59
2022/02/19 05:57:22;;;;;;;11.73;1.27;;;5.60;88.30;;;;;;5072715;28;20035;-60
2022/02/19 05:59:48;;;;;;;12.80;1.60;;;5.60;88.30;;;;;;5072460;28;20023;-59
2022/02/19 06:02:14;;;;;;;5.32;1.13;;;5.60;88.10;;;;;;5072804;28;20032;-60
2022/02/19 06:04:40;;;;;;;16.60;1.85;;;5.60;88.20;;;;;;5071287;28;20469;-59
2022/02/19 06:07:05;;;;;;;12.30;1.35;;;5.60;87.70;;;;;;5072619;28;20033;-60
2022/02/19 06:09:31;;;;;;;11.65;1.27;;;5.60;87.70;;;;;;5072506;28;20043;-59
2022/02/19 06:11:57;;;;;;;10.70;1.55;;;5.60;87.40;;;;;;5072447;28;20021;-59
2022/02/19 06:14:22;;;;;;;11.85;1.30;;;5.60;87.20;;;;;;5071501;28;20060;-60
2022/02/19 06:16:49;;;;;;;10.43;1.30;;;5.60;87.10;;;;;;5072391;28;20099;-59
2022/02/19 06:19:15;;;;;;;7.60;1.40;;;5.60;87.30;;;;;;5088006;28;20383;-59
2022/02/19 06:21:41;;;;;;;9.30;1.10;;;5.60;87.40;;;;;;5072287;28;20047;-59
2022/02/19 06:24:07;;;;;;;7.50;1.38;;;5.60;87.00;;;;;;5072275;28;20077;-60
2022/02/19 06:26:32;;;;;;;8.52;1.88;;;5.60;87.10;;;;;;5071341;28;20071;-59
2022/02/19 06:28:58;;;;;;;8.63;1.00;;;5.60;87.20;;;;;;5072266;28;20029;-59
2022/02/19 06:31:23;;;;;;;13.70;2.95;;;5.60;87.20;;;;;;5072387;28;20057;-59
2022/02/19 06:33:49;;;;;;;10.18;1.40;;;5.60;86.90;;;;;;5072130;28;20510;-59
2022/02/19 06:36:14;;;;;;;7.78;1.23;;;5.60;86.60;;;;;;5072039;28;20024;-60
2022/02/19 06:38:41;;;;;;;12.40;2.13;;;5.60;86.80;;;;;;5071990;28;20095;-59
2022/02/19 06:41:07;;;;;;;5.75;1.13;;;5.60;87.10;;;;;;5071712;28;20012;-59
2022/02/19 06:43:32;;;;;;;13.32;1.90;;;5.60;87.30;;;;;;5071649;28;20104;-59
2022/02/19 06:45:58;;;;;;;9.27;1.00;;;5.60;87.60;;;;;;5071065;28;20086;-59
2022/02/19 06:48:23;;;;;;;8.25;1.10;;;5.60;87.40;;;;;;5072122;28;20424;-59
2022/02/19 06:50:49;;;;;;;16.08;1.92;;;5.60;87.10;;;;;;5087270;28;20048;-60
2022/02/19 06:53:14;;;;;;;11.25;2.38;;;5.50;87.00;;;;;;5075147;28;20035;-59
2022/02/19 06:55:40;;;;;;;13.75;1.60;;;5.60;87.20;;;;;;5075305;28;20025;-59
2022/02/19 06:58:06;;;;;;;11.10;1.70;;;5.60;87.70;;;;;;5075187;28;20017;-60
2022/02/19 07:00:31;;;;;;;16.02;1.60;;;5.50;87.20;;;;;;5075636;28;20070;-59
2022/02/19 07:02:57;;;;;;;10.20;1.73;;;5.60;87.80;;;;;;5075698;28;20506;-59
2022/02/19 07:05:22;;;;;;;6.47;1.10;;;5.50;87.00;;;;;;5075398;28;20508;-59
2022/02/19 07:07:48;;;;;;;10.80;1.48;;;5.50;86.90;;;;;;5075038;28;20073;-59
2022/02/19 07:10:13;;;;;;;13.48;1.30;;;5.50;87.10;;;;;;5075129;28;20027;-59
2022/02/19 07:12:39;;;;;;;8.85;1.38;;;5.50;87.10;;;;;;5075289;28;20082;-59
2022/02/19 07:15:12;;;;;;;14.50;2.33;;;5.50;86.90;;;;;;5074757;28;20404;-59
2022/02/19 07:17:54;;;;;;;8.13;1.13;;;5.60;87.40;;;;;;5090921;28;20476;-59
2022/02/19 07:20:23;;;;;;;9.90;1.30;;;5.60;87.60;;;;;;5065555;28;20018;-59
2022/02/19 07:22:50;;;;;;;12.77;1.83;;;5.60;88.00;;;;;;5055182;28;20033;-59
2022/02/19 07:25:16;;;;;;;6.95;1.40;;;5.60;88.00;;;;;;5069304;28;20373;-59
2022/02/19 07:27:44;;;;;;;11.05;2.15;;;5.60;88.20;;;;;;5072096;28;20108;-60
2022/02/19 07:30:17;;;;;;;8.98;1.15;;;5.60;88.40;;;;;;5074228;28;20381;-59
2022/02/19 07:32:42;;;;;;;12.90;2.05;;;5.60;88.70;;;;;;5074962;28;20028;-59
2022/02/19 07:35:08;;;;;;;11.43;1.30;;;5.60;88.90;;;;;;5075198;28;20377;-59
2022/02/19 07:37:35;;;;;;;8.25;1.05;;;5.60;89.00;;;;;;5072104;28;20104;-59
2022/02/19 07:40:02;;;;;;;14.68;2.13;;;5.60;89.00;;;;;;5072162;28;20040;-59
2022/02/19 07:42:27;;;;;;;11.77;1.38;;;5.60;89.10;;;;;;5071214;28;20108;-59
2022/02/19 07:44:53;;;;;;;8.98;1.65;;;5.60;89.30;;;;;;5073742;28;20111;-59
2022/02/19 07:47:27;;;;;;;10.23;1.20;;;5.60;89.30;;;;;;5074866;28;20024;-59
2022/02/19 07:58:18;;;;;;;8.40;1.40;;;5.70;89.30;;;;;;5073803;28;20108;-59
2022/02/19 08:00:47;;;;;;;11.32;1.40;;;5.70;89.20;;;;;;5069166;28;20033;-59
2022/02/19 08:03:13;;;;;;;9.52;1.60;;;5.70;89.10;;;;;;5070441;28;20480;-59
2022/02/19 08:05:39;;;;;;;6.13;1.05;;;5.70;88.90;;;;;;5071733;28;20044;-60
2022/02/19 08:08:05;;;;;;;14.23;2.35;;;5.70;88.70;;;;;;5071057;28;20043;-60
2022/02/19 08:10:30;;;;;;;8.27;1.02;;;5.80;88.80;;;;;;5070651;28;20566;-60
2022/02/19 08:12:56;;;;;;;8.55;1.17;;;5.80;88.70;;;;;;5068198;28;20036;-59
2022/02/19 08:15:21;;;;;;;10.57;1.25;;;5.80;88.30;;;;;;5067383;28;20033;-60
2022/02/19 08:17:47;;;;;;;10.23;1.17;;;5.80;88.20;;;;;;5070215;28;20426;-59
2022/02/19 08:20:12;;;;;;;8.73;1.33;;;5.70;88.10;;;;;;5064513;28;20016;-60
2022/02/19 08:22:38;;;;;;;8.50;1.20;;;5.80;88.30;;;;;;5069952;28;20127;-59
2022/02/19 08:25:04;;;;;;;11.52;1.27;;;5.80;88.40;;;;;;5067149;28;20056;-59
2022/02/19 08:27:34;;;;;;;9.35;1.50;;;5.90;88.30;;;;;;5065114;28;20112;-59
2022/02/19 08:30:00;;;;;;;4.60;1.05;;;6.00;88.80;;;;;;5064231;28;20055;-60
2022/02/19 08:32:26;;;;;;;8.43;1.35;;;6.00;87.90;;;;;;5067034;28;20551;-59
2022/02/19 08:34:51;;;;;;;11.02;1.63;;;6.10;88.00;;;;;;5069144;28;20086;-60
2022/02/19 08:37:17;;;;;;;10.18;1.50;;;6.20;87.70;;;;;;5070628;28;20107;-59
2022/02/19 08:39:42;;;;;;;8.73;1.75;;;6.20;87.30;;;;;;5065269;28;20032;-59
2022/02/19 08:42:09;;;;;;;7.72;1.30;;;6.20;87.00;;;;;;5053793;28;20044;-60
2022/02/19 08:44:34;;;;;;;9.68;1.80;;;6.30;86.50;;;;;;5059344;28;20127;-59
2022/02/19 08:47:00;;;;;;;10.88;1.50;;;6.30;86.30;;;;;;5067380;28;20111;-59
2022/02/19 08:49:26;;;;;;;9.73;1.10;;;6.30;86.20;;;;;;5069354;28;20040;-59
2022/02/19 08:51:51;;;;;;;10.18;1.73;;;6.40;86.20;;;;;;5069645;28;20106;-60
2022/02/19 08:54:17;;;;;;;18.55;2.05;;;6.40;86.20;;;;;;5065037;28;20028;-59
2022/02/19 08:56:44;;;;;;;4.80;0.95;;;6.50;86.20;;;;;;5063924;28;20021;-60
2022/02/19 08:59:10;;;;;;;6.70;1.38;;;6.60;86.00;;;;;;5069477;28;20019;-59
2022/02/19 09:01:36;;;;;;;15.88;2.85;;;6.70;85.40;;;;;;5070328;28;20389;-59
2022/02/19 09:04:03;;;;;;;7.63;1.23;;;6.80;84.70;;;;;;5070256;28;20064;-60
2022/02/19 09:06:29;;;;;;;7.13;1.02;;;6.80;84.50;;;;;;5070664;28;20028;-60
2022/02/19 09:08:54;;;;;;;16.02;2.08;;;6.90;84.40;;;;;;5070365;28;20029;-60
2022/02/19 09:11:20;;;;;;;9.52;1.25;;;7.00;84.90;;;;;;5069819;28;20025;-60
2022/02/19 09:13:47;;;;;;;7.18;1.70;;;7.00;85.10;;;;;;5070225;28;20059;-59
2022/02/19 09:16:13;;;;;;;12.95;1.30;;;7.00;84.80;;;;;;5069841;28;20565;-60
2022/02/19 09:18:38;;;;;;;6.22;1.13;;;7.10;84.70;;;;;;5070317;28;20032;-60
2022/02/19 09:21:04;;;;;;;11.02;1.38;;;7.10;84.60;;;;;;5085330;28;20081;-60
2022/02/19 09:23:29;;;;;;;8.95;1.80;;;7.20;85.00;;;;;;5068621;28;20029;-60
2022/02/19 09:25:55;;;;;;;9.13;1.67;;;7.20;84.70;;;;;;5069817;28;20020;-60
2022/02/19 09:28:22;;;;;;;12.98;1.95;;;7.30;84.50;;;;;;5055281;28;20037;-60
2022/02/19 09:30:47;;;;;;;12.82;2.00;;;7.30;84.40;;;;;;5048292;28;20029;-60
2022/02/19 09:33:13;;;;;;;7.22;1.30;;;7.30;84.80;;;;;;5050022;28;20033;-60
2022/02/19 09:35:38;;;;;;;9.20;1.75;;;7.40;84.90;;;;;;5049861;28;20029;-60
2022/02/19 09:38:04;;;;;;;10.02;1.55;;;7.40;83.50;;;;;;5050146;28;20064;-59
2022/02/19 09:40:30;;;;;;;9.18;1.83;;;7.50;83.50;;;;;;5049658;28;20112;-60
2022/02/19 09:42:56;;;;;;;7.50;1.45;;;7.50;83.10;;;;;;5056615;28;20040;-60
2022/02/19 09:45:28;;;;;;;8.60;1.40;;;7.60;83.40;;;;;;5068155;28;20479;-60
2022/02/19 09:47:55;;;;;;;13.48;1.77;;;7.60;83.20;;;;;;5070209;28;20036;-59
2022/02/19 09:50:25;;;;;;;10.45;1.50;;;7.60;83.10;;;;;;5067378;28;20082;-60
2022/02/19 09:52:51;;;;;;;6.32;1.17;;;7.60;83.20;;;;;;5067654;28;20469;-60
2022/02/19 09:55:17;;;;;;;13.45;2.20;;;7.60;83.40;;;;;;5069895;28;20481;-60
2022/02/19 09:57:42;;;;;;;11.55;1.85;;;7.60;83.70;;;;;;5069775;28;20434;-60
2022/02/19 10:00:09;;;;;;;6.78;1.20;;;7.60;83.90;;;;;;5069397;28;20020;-60
2022/02/19 10:02:35;;;;;;;9.45;1.27;;;7.70;83.90;;;;;;5069606;28;20032;-59
2022/02/19 10:05:11;;;;;;;8.75;1.23;;;7.70;83.90;;;;;;5069507;28;20443;-60
2022/02/19 10:07:37;;;;;;;13.48;1.60;;;7.60;83.20;;;;;;5069214;28;20021;-59
2022/02/19 10:10:03;;;;;;;12.13;1.90;;;7.60;83.00;;;;;;5054980;28;20067;-59
2022/02/19 10:12:46;;;;;;;11.68;1.75;;;7.60;82.60;;;;;;5047401;28;20029;-60
2022/02/19 10:15:12;;;;;;;12.48;1.70;;;7.70;82.10;;;;;;5060760;28;20036;-60
2022/02/19 10:17:39;;;;;;;8.57;1.70;;;7.80;81.80;;;;;;5053584;28;20021;-60
2022/02/19 10:20:06;;;;;;;9.52;1.70;;;8.00;80.90;;;;;;5049206;28;20029;-60
2022/02/19 10:22:34;;;;;;;10.32;1.45;;;8.20;80.80;;;;;;5049286;28;20053;-59
2022/02/19 10:25:21;;;;;;;8.65;1.73;;;8.50;81.20;;;;;;5039857;28;20189;-60
2022/02/19 10:27:54;;;;;;;6.55;1.30;;;9.00;80.60;;;;;;5040066;28;20029;-60
2022/02/19 10:30:21;;;;;;;7.45;1.48;;;9.20;78.00;;;;;;5061716;28;20058;-60
2022/02/19 10:33:07;;;;;;;7.78;1.20;;;9.50;79.10;;;;;;5073043;28;20036;-60
2022/02/19 10:35:38;;;;;;;8.15;1.55;;;11.30;77.60;;;;;;5073129;28;20074;-61
2022/02/19 10:38:10;;;;;;;6.75;1.50;;;12.50;69.70;;;;;;5072701;28;20407;-60
2022/02/19 10:40:38;;;;;;;8.25;1.35;;;12.60;68.90;;;;;;5072913;28;20544;-60
2022/02/19 10:43:07;;;;;;;6.40;1.48;;;12.30;66.50;;;;;;5071502;28;20032;-60
2022/02/19 10:45:33;;;;;;;4.53;1.25;;;11.80;66.70;;;;;;5071524;28;20039;-60
2022/02/19 10:48:21;;;;;;;10.15;2.13;;;11.90;67.80;;;;;;5071632;28;20032;-59
2022/02/19 10:50:48;;;;;;;10.70;1.23;;;11.80;67.00;;;;;;5072417;28;20462;-60
2022/02/19 10:53:25;;;;;;;7.72;1.42;;;12.30;66.20;;;;;;5072328;28;20028;-60
2022/02/19 10:55:52;;;;;;;8.25;1.48;;;14.40;65.90;;;;;;5072762;28;20438;-60
2022/02/19 10:58:17;;;;;;;7.97;1.70;;;17.30;58.30;;;;;;5088260;28;20021;-60
2022/02/19 11:00:44;;;;;;;6.38;1.40;;;18.60;52.30;;;;;;5072944;28;20447;-60
2022/02/19 11:03:11;;;;;;;7.40;1.17;;;18.20;50.30;;;;;;5088356;28;20071;-60
2022/02/19 11:05:37;;;;;;;10.18;1.70;;;18.00;49.90;;;;;;5072811;28;20449;-60
2022/02/19 11:08:03;;;;;;;6.15;1.17;;;17.90;51.50;;;;;;5072083;28;20041;-60
2022/02/19 11:10:29;;;;;;;6.00;1.20;;;20.10;50.70;;;;;;5072726;28;20016;-60
2022/02/19 11:12:55;;;;;;;5.03;1.17;;;21.60;47.20;;;;;;5072616;28;20112;-60
2022/02/19 11:15:25;;;;;;;7.07;1.25;;;22.00;42.80;;;;;;5070744;28;20541;-58
2022/02/19 11:17:51;;;;;;;7.15;1.23;;;21.20;42.30;;;;;;5071777;28;20013;-58
2022/02/19 11:20:18;;;;;;;8.50;1.33;;;20.50;43.50;;;;;;5067999;28;20025;-58
2022/02/19 11:22:44;;;;;;;3.88;1.20;;;21.90;42.40;;;;;;5068426;28;20099;-58
2022/02/19 11:25:14;;;;;;;4.65;1.25;;;24.00;41.40;;;;;;5071599;28;20031;-58
2022/02/19 11:27:54;;;;;;;5.35;1.08;;;24.30;38.60;;;;;;5068386;28;20074;-58
2022/02/19 11:30:21;;;;;;;7.25;1.75;;;23.20;38.50;;;;;;5071146;28;20047;-58
2022/02/19 11:32:51;;;;;;;7.55;1.35;;;23.30;38.00;;;;;;5066842;28;20033;-59
2022/02/19 11:35:33;;;;;;;7.72;1.60;;;23.30;38.30;;;;;;5052157;28;20100;-58
2022/02/19 11:37:59;;;;;;;6.97;1.38;;;23.60;38.20;;;;;;5051717;28;20021;-58
2022/02/19 11:40:25;;;;;;;4.57;1.10;;;24.20;37.30;;;;;;5052047;28;20031;-58
2022/02/19 11:42:53;;;;;;;6.78;1.40;;;24.30;37.10;;;;;;5052061;28;20389;-58
2022/02/19 11:45:30;;;;;;;6.75;1.40;;;23.50;36.70;;;;;;5052134;28;20520;-59
2022/02/19 11:48:02;;;;;;;5.90;1.50;;;22.50;37.50;;;;;;5050673;28;20042;-59
2022/02/19 11:50:29;;;;;;;5.70;1.67;;;22.40;38.10;;;;;;5052225;28;20037;-59
2022/02/19 11:53:13;;;;;;;6.93;1.20;;;22.70;39.20;;;;;;5070123;28;20120;-58
2022/02/19 11:55:40;;;;;;;6.32;1.50;;;22.50;38.10;;;;;;5071919;28;20119;-59
2022/02/19 11:58:14;;;;;;;5.20;1.13;;;21.50;39.20;;;;;;5070633;28;20032;-59
2022/02/19 12:00:50;;;;;;;6.22;1.70;;;19.90;40.60;;;;;;5060965;28;20101;-58
2022/02/19 12:03:27;;;;;;;8.55;2.00;;;18.10;42.60;;;;;;5069188;28;20024;-59
2022/02/19 12:06:06;;;;;;;4.35;1.00;;;16.60;45.50;;;;;;5067150;28;20126;-58
2022/02/19 12:08:46;;;;;;;6.88;1.35;;;15.60;47.30;;;;;;5065570;28;20024;-58
2022/02/19 12:11:13;;;;;;;8.77;1.30;;;15.60;48.30;;;;;;5067489;28;20051;-58
2022/02/19 12:13:47;;;;;;;4.82;1.08;;;15.90;48.60;;;;;;5060599;28;20024;-58
2022/02/19 12:16:27;;;;;;;5.28;1.20;;;17.40;46.30;;;;;;5070962;28;20025;-59
2022/02/19 12:18:56;;;;;;;6.90;1.00;;;19.10;45.50;;;;;;5067900;28;20024;-59
2022/02/19 12:21:33;;;;;;;6.50;1.40;;;20.80;43.00;;;;;;5061978;28;20029;-59
2022/02/19 12:24:25;;;;;;;4.03;1.02;;;20.50;40.10;;;;;;5060937;28;20111;-59
2022/02/19 12:26:57;;;;;;;6.43;1.30;;;20.00;41.10;;;;;;5059302;28;20032;-59
2022/02/19 12:29:35;;;;;;;5.00;1.00;;;19.90;40.50;;;;;;5059286;28;20676;-59
2022/02/19 12:32:08;;;;;;;6.15;0.90;;;19.60;41.10;;;;;;5065030;28;20180;-59
2022/02/19 12:34:38;;;;;;;5.82;1.25;;;19.40;41.00;;;;;;5054406;28;20439;-59
2022/02/19 12:37:09;;;;;;;6.13;1.27;;;19.10;40.70;;;;;;5059307;28;20016;-59
2022/02/19 12:39:41;;;;;;;4.95;1.05;;;18.80;40.80;;;;;;5066056;28;20029;-59
2022/02/19 12:42:07;;;;;;;4.95;1.23;;;18.70;41.60;;;;;;5059327;28;20028;-59
2022/02/19 12:44:34;;;;;;;6.38;1.00;;;18.60;42.00;;;;;;5056663;28;20020;-59
2022/02/19 12:46:59;;;;;;;3.65;1.00;;;17.80;42.30;;;;;;5063928;28;20104;-59
2022/02/19 12:49:25;;;;;;;6.47;1.38;;;17.30;43.70;;;;;;5058002;28;20104;-60
2022/02/19 12:51:58;;;;;;;4.93;0.80;;;17.50;43.40;;;;;;5057375;28;20029;-59
2022/02/19 12:54:44;;;;;;;4.22;0.90;;;17.70;43.60;;;;;;5058992;28;20017;-60
2022/02/19 12:57:12;;;;;;;5.82;0.85;;;18.10;43.70;;;;;;5056064;28;20029;-60
2022/02/19 12:59:40;;;;;;;3.90;0.77;;;17.60;43.40;;;;;;5056605;28;20036;-60